Time;durP1;ratioP1;P1;durP2;ratioP2;P2;SDS_P1;SDS_P2;PMS_P1;PMS_P2;Temp;Humidity;BMP_temperature;BMP_pressure;BME280_temperature;BME280_humidity;BME280_pressure;Samples;Min_cycle;Max_cycle;Signal;HPM_P1;HPM_P2
2021/10/14 00:01:31;;;;;;;3.92;1.83;;;;;;;;;;5032814;28;20077;-85
2021/10/14 00:04:00;;;;;;;3.88;2.00;;;;;;;;;;5034085;28;20052;-86
2021/10/14 00:06:26;;;;;;;3.97;2.08;;;;;;;;;;5043998;28;20103;-85
2021/10/14 00:08:53;;;;;;;4.15;2.28;;;;;;;;;;5034776;28;20403;-85
2021/10/14 00:11:20;;;;;;;4.63;2.25;;;;;;;;;;5034523;28;20052;-86
2021/10/14 00:13:47;;;;;;;5.40;2.10;;;;;;;;;;5033193;28;20056;-86
2021/10/14 00:16:14;;;;;;;10.23;3.08;;;;;;;;;;5034275;28;20509;-85
2021/10/14 00:18:41;;;;;;;3.17;1.75;;;;;;;;;;5035925;28;20049;-87
2021/10/14 00:21:09;;;;;;;3.90;2.25;;;;;;;;;;5034653;28;20060;-86
2021/10/14 00:23:36;;;;;;;4.00;1.88;;;;;;;;;;5033256;28;20052;-86
2021/10/14 00:26:02;;;;;;;4.00;2.35;;;;;;;;;;5031845;28;20545;-86
2021/10/14 00:28:29;;;;;;;5.00;2.22;;;;;;;;;;5033503;28;20129;-85
2021/10/14 00:30:56;;;;;;;4.60;2.40;;;;;;;;;;5033816;28;20048;-86
2021/10/14 00:33:23;;;;;;;3.83;2.30;;;;;;;;;;5034435;28;20509;-87
2021/10/14 00:35:49;;;;;;;5.22;2.08;;;;;;;;;;5035441;28;20053;-87
2021/10/14 00:38:18;;;;;;;4.15;2.10;;;;;;;;;;5032984;28;20050;-86
2021/10/14 00:40:45;;;;;;;4.43;2.60;;;;;;;;;;5035215;28;20049;-86
2021/10/14 00:43:11;;;;;;;4.43;2.28;;;;;;;;;;5039276;28;20136;-87
2021/10/14 00:45:39;;;;;;;3.88;2.17;;;;;;;;;;5038472;28;20174;-87
2021/10/14 00:48:06;;;;;;;5.43;2.50;;;;;;;;;;5026965;28;20069;-88
2021/10/14 00:50:33;;;;;;;4.55;2.40;;;;;;;;;;5037857;28;20052;-87
2021/10/14 00:53:00;;;;;;;3.92;2.35;;;;;;;;;;5026726;28;20053;-87
2021/10/14 00:55:29;;;;;;;5.05;2.35;;;;;;;;;;5038571;28;20046;-87
2021/10/14 00:57:58;;;;;;;4.53;2.38;;;;;;;;;;5034217;28;20052;-87
2021/10/14 01:00:25;;;;;;;5.05;2.53;;;;;;;;;;5001719;28;20057;-87
2021/10/14 01:02:52;;;;;;;6.72;2.90;;;;;;;;;;5038405;28;20478;-88
2021/10/14 01:05:20;;;;;;;5.82;2.97;;;;;;;;;;5055656;28;20077;-86
2021/10/14 01:07:47;;;;;;;6.00;3.63;;;;;;;;;;5040590;28;20061;-86
2021/10/14 01:10:14;;;;;;;5.90;3.20;;;;;;;;;;5038041;28;20467;-87
2021/10/14 01:12:44;;;;;;;4.60;2.55;;;;;;;;;;5036790;28;20079;-86
2021/10/14 01:15:19;;;;;;;5.63;2.58;;;;;;;;;;5036266;28;20057;-87
2021/10/14 01:17:46;;;;;;;5.95;3.05;;;;;;;;;;5037774;28;20410;-88
2021/10/14 01:20:15;;;;;;;6.00;2.65;;;;;;;;;;5036026;28;20056;-88
2021/10/14 01:22:42;;;;;;;6.78;2.80;;;;;;;;;;5034199;28;20051;-86
2021/10/14 01:25:10;;;;;;;4.90;2.80;;;;;;;;;;5035616;28;20052;-87
2021/10/14 01:27:37;;;;;;;6.75;2.53;;;;;;;;;;5025996;28;20060;-87
2021/10/14 01:30:06;;;;;;;4.35;2.65;;;;;;;;;;5035737;28;20117;-87
2021/10/14 01:32:35;;;;;;;5.38;2.20;;;;;;;;;;5035921;28;20064;-87
2021/10/14 01:35:03;;;;;;;6.18;3.10;;;;;;;;;;5034764;28;20645;-87
2021/10/14 01:37:37;;;;;;;5.65;2.60;;;;;;;;;;5036089;28;20081;-87
2021/10/14 01:40:07;;;;;;;6.63;3.05;;;;;;;;;;5032017;28;20053;-87
2021/10/14 01:42:33;;;;;;;5.70;2.40;;;;;;;;;;5020356;28;20052;-87
2021/10/14 01:45:01;;;;;;;4.25;2.35;;;;;;;;;;5043867;28;20056;-87
2021/10/14 01:47:30;;;;;;;5.63;2.90;;;;;;;;;;5042027;28;20096;-87
2021/10/14 01:49:57;;;;;;;6.43;3.20;;;;;;;;;;5033520;28;20051;-87
2021/10/14 01:52:24;;;;;;;4.82;2.55;;;;;;;;;;5035913;28;20053;-87
2021/10/14 01:54:53;;;;;;;5.20;3.13;;;;;;;;;;5045800;28;20049;-87
2021/10/14 01:57:34;;;;;;;5.63;3.20;;;;;;;;;;5038435;28;20055;-87
2021/10/14 02:00:01;;;;;;;6.78;2.45;;;;;;;;;;5039901;28;20049;-87
2021/10/14 02:02:30;;;;;;;4.75;2.33;;;;;;;;;;5035471;28;20046;-87
2021/10/14 02:04:57;;;;;;;5.05;2.50;;;;;;;;;;5034697;28;20045;-88
2021/10/14 02:07:24;;;;;;;4.75;2.42;;;;;;;;;;5034241;28;20096;-87
2021/10/14 02:09:56;;;;;;;5.28;2.50;;;;;;;;;;5017678;28;20058;-87
2021/10/14 02:12:25;;;;;;;3.92;2.10;;;;;;;;;;5034856;28;20045;-86
2021/10/14 02:14:51;;;;;;;5.80;2.70;;;;;;;;;;5035699;28;20332;-86
2021/10/14 02:17:19;;;;;;;3.20;2.05;;;;;;;;;;5035298;28;20053;-87
2021/10/14 02:19:46;;;;;;;7.05;2.78;;;;;;;;;;5035199;28;20271;-88
2021/10/14 02:22:13;;;;;;;4.55;2.90;;;;;;;;;;5035724;28;20099;-87
2021/10/14 02:24:40;;;;;;;5.90;2.70;;;;;;;;;;5034244;28;20053;-87
2021/10/14 02:27:10;;;;;;;7.03;3.53;;;;;;;;;;5035156;28;20045;-86
2021/10/14 02:29:40;;;;;;;7.25;3.72;;;;;;;;;;5023954;28;20191;-85
2021/10/14 02:32:09;;;;;;;4.97;2.63;;;;;;;;;;5035384;28;20478;-85
2021/10/14 02:34:36;;;;;;;8.05;3.60;;;;;;;;;;5035414;28;20061;-86
2021/10/14 02:37:06;;;;;;;7.68;3.75;;;;;;;;;;5034432;28;20467;-85
2021/10/14 02:39:32;;;;;;;8.75;4.43;;;;;;;;;;5034719;28;20049;-85
2021/10/14 02:42:00;;;;;;;9.18;4.70;;;;;;;;;;5035759;28;20042;-85
2021/10/14 02:44:28;;;;;;;9.98;5.03;;;;;;;;;;5035564;28;20050;-85
2021/10/14 02:46:55;;;;;;;8.50;4.75;;;;;;;;;;5033715;28;20513;-85
2021/10/14 02:49:22;;;;;;;8.40;4.63;;;;;;;;;;5034666;28;20053;-87
2021/10/14 02:51:49;;;;;;;13.15;5.10;;;;;;;;;;5035553;28;20421;-86
2021/10/14 02:54:15;;;;;;;10.15;5.07;;;;;;;;;;5033922;28;20502;-85
2021/10/14 02:56:42;;;;;;;8.57;4.80;;;;;;;;;;5034459;28;20387;-85
2021/10/14 02:59:11;;;;;;;8.40;4.25;;;;;;;;;;5034728;28;20104;-86
2021/10/14 03:01:41;;;;;;;10.52;5.13;;;;;;;;;;5035748;28;20053;-85
2021/10/14 03:04:07;;;;;;;7.57;4.53;;;;;;;;;;5034832;28;20367;-86
2021/10/14 03:06:34;;;;;;;10.90;4.40;;;;;;;;;;5035042;28;20564;-86
2021/10/14 03:09:01;;;;;;;8.10;4.40;;;;;;;;;;5033054;28;20081;-86
2021/10/14 03:11:28;;;;;;;8.00;4.22;;;;;;;;;;5035347;28;20049;-86
2021/10/14 03:13:54;;;;;;;7.47;4.05;;;;;;;;;;5033956;28;20049;-86
2021/10/14 03:16:21;;;;;;;6.10;3.38;;;;;;;;;;5038376;28;20412;-86
2021/10/14 03:18:51;;;;;;;7.45;3.22;;;;;;;;;;5033770;28;20061;-86
2021/10/14 03:21:19;;;;;;;10.27;4.05;;;;;;;;;;5034820;28;20597;-87
2021/10/14 03:23:45;;;;;;;7.20;4.30;;;;;;;;;;5033834;28;20115;-86
2021/10/14 03:26:12;;;;;;;8.18;3.92;;;;;;;;;;5033069;28;20045;-86
2021/10/14 03:28:39;;;;;;;7.93;4.10;;;;;;;;;;5034408;28;20056;-86
2021/10/14 03:31:06;;;;;;;9.85;4.18;;;;;;;;;;5033980;28;20057;-86
2021/10/14 03:33:32;;;;;;;7.60;4.25;;;;;;;;;;5028398;28;20053;-86
2021/10/14 03:36:01;;;;;;;6.95;3.78;;;;;;;;;;5030612;28;20395;-86
2021/10/14 03:38:29;;;;;;;9.43;4.20;;;;;;;;;;5034513;28;20520;-86
2021/10/14 03:40:56;;;;;;;8.40;4.38;;;;;;;;;;5033703;28;20049;-85
2021/10/14 03:43:23;;;;;;;9.00;4.38;;;;;;;;;;5032283;28;20115;-85
2021/10/14 03:45:49;;;;;;;8.35;4.15;;;;;;;;;;5033789;28;20046;-85
2021/10/14 03:48:17;;;;;;;7.70;3.72;;;;;;;;;;5033550;28;20587;-85
2021/10/14 03:50:46;;;;;;;8.52;5.05;;;;;;;;;;5034187;28;20056;-85
2021/10/14 03:53:14;;;;;;;9.20;3.75;;;;;;;;;;5035103;28;20046;-85
2021/10/14 03:55:40;;;;;;;7.93;4.05;;;;;;;;;;5032101;28;20056;-86
2021/10/14 03:58:08;;;;;;;8.63;4.40;;;;;;;;;;5033053;28;20510;-86
2021/10/14 04:00:34;;;;;;;7.88;3.88;;;;;;;;;;5032203;28;20140;-85
2021/10/14 04:03:01;;;;;;;6.72;3.63;;;;;;;;;;5032057;28;20517;-84
2021/10/14 04:05:30;;;;;;;9.02;3.75;;;;;;;;;;5032231;28;20141;-84
2021/10/14 04:07:57;;;;;;;7.50;3.78;;;;;;;;;;5033404;28;20069;-85
2021/10/14 04:10:26;;;;;;;9.73;4.45;;;;;;;;;;5033551;28;20045;-85
2021/10/14 04:12:53;;;;;;;6.90;3.47;;;;;;;;;;5032126;28;20064;-84
2021/10/14 04:15:20;;;;;;;11.85;5.40;;;;;;;;;;5033252;28;20041;-85
2021/10/14 04:17:47;;;;;;;6.97;4.00;;;;;;;;;;5015671;28;20104;-85
2021/10/14 04:20:15;;;;;;;7.88;4.28;;;;;;;;;;5032642;28;20045;-83
2021/10/14 04:22:41;;;;;;;9.35;4.57;;;;;;;;;;5032951;28;20434;-85
2021/10/14 04:25:10;;;;;;;8.02;4.40;;;;;;;;;;5032991;28;20050;-87
2021/10/14 04:27:38;;;;;;;11.35;4.40;;;;;;;;;;5033242;28;20058;-86
2021/10/14 04:30:06;;;;;;;9.27;4.90;;;;;;;;;;5031437;28;20172;-86
2021/10/14 04:32:33;;;;;;;9.82;4.95;;;;;;;;;;5033313;28;20053;-85
2021/10/14 04:35:00;;;;;;;8.73;4.65;;;;;;;;;;5025329;28;20056;-85
2021/10/14 04:37:27;;;;;;;9.73;4.88;;;;;;;;;;5017232;28;20053;-86
2021/10/14 04:39:53;;;;;;;9.13;5.22;;;;;;;;;;5033745;28;20045;-86
2021/10/14 04:42:20;;;;;;;10.27;5.80;;;;;;;;;;5033728;28;20057;-86
2021/10/14 04:44:48;;;;;;;11.68;5.60;;;;;;;;;;5033230;28;20065;-85
2021/10/14 04:47:18;;;;;;;10.30;5.68;;;;;;;;;;5037177;28;20057;-86
2021/10/14 04:49:45;;;;;;;13.45;7.22;;;;;;;;;;5021736;28;20471;-86
2021/10/14 04:52:12;;;;;;;11.77;6.53;;;;;;;;;;5037461;28;20648;-86
2021/10/14 04:54:39;;;;;;;13.18;6.70;;;;;;;;;;5045930;28;20418;-85
2021/10/14 04:57:05;;;;;;;11.57;5.43;;;;;;;;;;5038444;28;20052;-86
2021/10/14 04:59:32;;;;;;;8.52;4.50;;;;;;;;;;5043674;28;20049;-86
2021/10/14 05:02:01;;;;;;;8.25;4.75;;;;;;;;;;5035468;28;20053;-86
2021/10/14 05:04:28;;;;;;;10.45;4.70;;;;;;;;;;5039179;28;20458;-86
2021/10/14 05:06:55;;;;;;;8.70;4.90;;;;;;;;;;5036773;28;20046;-86
2021/10/14 05:09:21;;;;;;;10.75;5.20;;;;;;;;;;5036591;28;20046;-87
2021/10/14 05:11:50;;;;;;;11.93;4.50;;;;;;;;;;5037178;28;20072;-86
2021/10/14 05:14:17;;;;;;;12.15;6.40;;;;;;;;;;5019235;28;20050;-86
2021/10/14 05:16:44;;;;;;;14.55;8.52;;;;;;;;;;5035900;28;20045;-86
2021/10/14 05:19:12;;;;;;;12.60;6.70;;;;;;;;;;5036044;28;20124;-86
2021/10/14 05:21:41;;;;;;;13.10;7.20;;;;;;;;;;5037525;28;20046;-87
2021/10/14 05:24:08;;;;;;;12.82;7.10;;;;;;;;;;5036003;28;20045;-86
2021/10/14 05:26:35;;;;;;;21.50;11.23;;;;;;;;;;5036711;28;20054;-87
2021/10/14 05:29:02;;;;;;;17.52;10.93;;;;;;;;;;5019273;28;20090;-86
2021/10/14 05:31:30;;;;;;;36.17;12.45;;;;;;;;;;5035783;28;20053;-86
2021/10/14 05:33:59;;;;;;;23.60;10.80;;;;;;;;;;5049756;28;20098;-87
2021/10/14 05:36:28;;;;;;;20.55;10.93;;;;;;;;;;5059831;28;20049;-87
2021/10/14 05:38:54;;;;;;;18.10;8.68;;;;;;;;;;5055891;28;20516;-87
2021/10/14 05:41:22;;;;;;;15.52;9.55;;;;;;;;;;5055174;28;20397;-87
2021/10/14 05:43:49;;;;;;;18.88;8.20;;;;;;;;;;5055217;28;20103;-86
2021/10/14 05:46:16;;;;;;;16.92;8.10;;;;;;;;;;5055839;28;20456;-86
2021/10/14 05:48:44;;;;;;;17.00;8.73;;;;;;;;;;5055888;28;20044;-87
2021/10/14 05:51:11;;;;;;;14.93;8.05;;;;;;;;;;5055476;28;20048;-87
2021/10/14 05:53:39;;;;;;;13.40;7.80;;;;;;;;;;5055113;28;20132;-87
2021/10/14 05:56:06;;;;;;;18.17;9.65;;;;;;;;;;5037844;28;20052;-87
2021/10/14 05:58:33;;;;;;;16.98;9.40;;;;;;;;;;5035227;28;20042;-88
2021/10/14 06:01:01;;;;;;;16.13;8.80;;;;;;;;;;5038267;28;20049;-88
2021/10/14 06:03:27;;;;;;;15.68;7.97;;;;;;;;;;5041311;28;20056;-88
2021/10/14 06:05:55;;;;;;;17.25;8.27;;;;;;;;;;5038799;28;20045;-89
2021/10/14 06:08:22;;;;;;;16.25;7.60;;;;;;;;;;5040830;28;20411;-88
2021/10/14 06:10:53;;;;;;;17.73;9.23;;;;;;;;;;5040975;28;20494;-89
2021/10/14 06:13:20;;;;;;;15.60;7.30;;;;;;;;;;5041834;28;20332;-88
2021/10/14 06:15:47;;;;;;;14.85;8.45;;;;;;;;;;5044030;28;20057;-88
2021/10/14 06:18:14;;;;;;;13.95;7.90;;;;;;;;;;5028322;28;20049;-88
2021/10/14 06:20:41;;;;;;;13.82;7.47;;;;;;;;;;5040695;28;20053;-88
2021/10/14 06:23:09;;;;;;;30.25;8.38;;;;;;;;;;5017667;28;20076;-88
2021/10/14 06:25:36;;;;;;;19.52;8.65;;;;;;;;;;5035571;28;20049;-88
2021/10/14 06:28:05;;;;;;;23.33;9.02;;;;;;;;;;5033446;28;20068;-89
2021/10/14 06:30:32;;;;;;;18.05;7.93;;;;;;;;;;5034862;28;20045;-88
2021/10/14 06:33:00;;;;;;;16.90;7.55;;;;;;;;;;5041544;28;20049;-88
2021/10/14 06:35:27;;;;;;;18.27;8.93;;;;;;;;;;5053390;28;20049;-88
2021/10/14 06:37:55;;;;;;;18.85;8.88;;;;;;;;;;5053533;28;20106;-88
2021/10/14 06:40:22;;;;;;;18.30;8.00;;;;;;;;;;5053838;28;20406;-88
2021/10/14 06:42:49;;;;;;;15.60;8.30;;;;;;;;;;5053277;28;20132;-88
2021/10/14 06:45:17;;;;;;;16.33;9.02;;;;;;;;;;5052942;28;20567;-89
2021/10/14 06:47:44;;;;;;;14.40;8.43;;;;;;;;;;5034017;28;20072;-88
2021/10/14 06:50:10;;;;;;;26.10;12.68;;;;;;;;;;5016841;28;20049;-88
2021/10/14 06:52:37;;;;;;;31.42;18.20;;;;;;;;;;5034740;28;20049;-88
2021/10/14 06:55:05;;;;;;;25.95;14.98;;;;;;;;;;5034239;28;20060;-88
2021/10/14 06:57:32;;;;;;;25.00;12.20;;;;;;;;;;5033690;28;20417;-88
2021/10/14 06:59:59;;;;;;;21.15;11.40;;;;;;;;;;5018210;28;20486;-87
2021/10/14 07:02:27;;;;;;;22.52;10.30;;;;;;;;;;5035053;28;20041;-87
2021/10/14 07:04:54;;;;;;;17.00;8.43;;;;;;;;;;5035659;28;20156;-87
2021/10/14 07:07:21;;;;;;;15.05;8.57;;;;;;;;;;5034925;28;20055;-87
2021/10/14 07:09:48;;;;;;;17.63;10.18;;;;;;;;;;5034840;28;20053;-86
2021/10/14 07:12:16;;;;;;;17.92;9.20;;;;;;;;;;5034877;28;20053;-86
2021/10/14 07:14:44;;;;;;;18.80;9.55;;;;;;;;;;5036200;28;20060;-87
2021/10/14 07:17:11;;;;;;;16.88;9.90;;;;;;;;;;5035381;28;20064;-85
2021/10/14 07:19:40;;;;;;;24.08;9.88;;;;;;;;;;5035133;28;20057;-87
2021/10/14 07:22:07;;;;;;;19.88;10.43;;;;;;;;;;5036369;28;20569;-86
2021/10/14 07:24:34;;;;;;;20.88;10.45;;;;;;;;;;5019605;28;20045;-87
2021/10/14 07:27:01;;;;;;;17.10;9.65;;;;;;;;;;5036266;28;20445;-86
2021/10/14 07:29:29;;;;;;;20.05;10.45;;;;;;;;;;5036654;28;20117;-88
2021/10/14 07:31:56;;;;;;;16.92;9.30;;;;;;;;;;5037500;28;20103;-87
2021/10/14 07:34:23;;;;;;;20.65;9.93;;;;;;;;;;5052899;28;20071;-86
2021/10/14 07:36:51;;;;;;;21.27;9.35;;;;;;;;;;5047960;28;20406;-86
2021/10/14 07:39:18;;;;;;;15.88;9.07;;;;;;;;;;5034200;28;20152;-87
2021/10/14 07:41:46;;;;;;;17.33;9.25;;;;;;;;;;5034165;28;20051;-87
2021/10/14 07:44:13;;;;;;;17.45;10.80;;;;;;;;;;5017170;28;20541;-87
2021/10/14 07:46:40;;;;;;;16.05;9.80;;;;;;;;;;5032926;28;20125;-86
2021/10/14 07:49:07;;;;;;;21.73;9.65;;;;;;;;;;5032859;28;20046;-86
2021/10/14 07:51:35;;;;;;;17.77;8.75;;;;;;;;;;5034373;28;20056;-87
2021/10/14 07:54:04;;;;;;;18.50;11.00;;;;;;;;;;5044932;28;20678;-86
2021/10/14 07:56:31;;;;;;;19.88;10.73;;;;;;;;;;5033092;28;20406;-85
2021/10/14 07:58:58;;;;;;;17.48;10.43;;;;;;;;;;5035287;28;20049;-87
2021/10/14 08:01:25;;;;;;;18.10;10.77;;;;;;;;;;5033732;28;20057;-87
2021/10/14 08:03:51;;;;;;;23.80;11.40;;;;;;;;;;5033203;28;20053;-86
2021/10/14 08:06:18;;;;;;;19.08;10.10;;;;;;;;;;5016797;28;20140;-86
2021/10/14 08:08:45;;;;;;;15.38;9.80;;;;;;;;;;5033911;28;20462;-85
2021/10/14 08:11:14;;;;;;;16.27;9.55;;;;;;;;;;5032331;28;20076;-86
2021/10/14 08:13:47;;;;;;;20.02;10.15;;;;;;;;;;5044782;28;20413;-87
2021/10/14 08:16:14;;;;;;;19.45;9.43;;;;;;;;;;5047595;28;20049;-87
2021/10/14 08:18:41;;;;;;;19.63;10.10;;;;;;;;;;5052688;28;20512;-87
2021/10/14 08:21:08;;;;;;;17.70;10.02;;;;;;;;;;5037084;28;20060;-87
2021/10/14 08:23:35;;;;;;;18.73;10.32;;;;;;;;;;5053673;28;20071;-86
2021/10/14 08:26:02;;;;;;;18.88;9.05;;;;;;;;;;5052561;28;20045;-86
2021/10/14 08:28:31;;;;;;;15.10;8.85;;;;;;;;;;5025005;28;20050;-85
2021/10/14 08:30:58;;;;;;;16.65;8.82;;;;;;;;;;5033645;28;20054;-86
2021/10/14 08:33:25;;;;;;;15.60;9.15;;;;;;;;;;5033788;28;20049;-86
2021/10/14 08:35:52;;;;;;;18.05;9.90;;;;;;;;;;5015815;28;20060;-86
2021/10/14 08:38:19;;;;;;;18.83;9.52;;;;;;;;;;5032362;28;20072;-86
2021/10/14 08:40:51;;;;;;;18.48;8.23;;;;;;;;;;5033123;28;20050;-86
2021/10/14 08:43:19;;;;;;;13.20;8.93;;;;;;;;;;5048983;28;20057;-87
2021/10/14 08:45:50;;;;;;;20.25;8.90;;;;;;;;;;5038851;28;20052;-86
2021/10/14 08:48:17;;;;;;;19.10;8.52;;;;;;;;;;5034095;28;20060;-85
2021/10/14 08:50:50;;;;;;;15.93;7.65;;;;;;;;;;5033204;28;20049;-87
2021/10/14 08:53:20;;;;;;;15.05;7.70;;;;;;;;;;5034226;28;20513;-86
2021/10/14 08:55:47;;;;;;;16.17;8.75;;;;;;;;;;5034605;28;20109;-85
2021/10/14 08:58:15;;;;;;;13.43;7.72;;;;;;;;;;5034792;28;20054;-87
2021/10/14 09:00:52;;;;;;;16.27;8.57;;;;;;;;;;5034997;28;20052;-87
2021/10/14 09:03:29;;;;;;;13.75;7.82;;;;;;;;;;5035870;28;20231;-87
2021/10/14 09:05:56;;;;;;;11.85;6.90;;;;;;;;;;5036171;28;20053;-86
2021/10/14 09:08:40;;;;;;;12.93;7.82;;;;;;;;;;5036621;28;20108;-88
2021/10/14 09:11:14;;;;;;;16.42;7.57;;;;;;;;;;5036726;28;20053;-88
2021/10/14 09:13:49;;;;;;;13.40;7.13;;;;;;;;;;5037699;28;20056;-88
2021/10/14 09:16:33;;;;;;;13.30;8.15;;;;;;;;;;5019516;28;20053;-88
2021/10/14 09:19:24;;;;;;;11.35;7.57;;;;;;;;;;5028769;28;20052;-88
2021/10/14 09:21:53;;;;;;;14.88;7.43;;;;;;;;;;5041317;28;20053;-88
2021/10/14 09:24:33;;;;;;;10.60;6.90;;;;;;;;;;5037330;28;20050;-86
2021/10/14 09:27:02;;;;;;;12.57;6.80;;;;;;;;;;5036250;28;20375;-87
2021/10/14 09:29:30;;;;;;;15.23;7.47;;;;;;;;;;5035131;28;20141;-86
2021/10/14 09:31:59;;;;;;;14.95;6.70;;;;;;;;;;5036328;28;20076;-88
2021/10/14 09:34:39;;;;;;;11.68;6.43;;;;;;;;;;5035777;28;20045;-86
2021/10/14 09:37:26;;;;;;;14.30;6.68;;;;;;;;;;5035700;28;20054;-86
2021/10/14 09:42:50;;;;;;;9.90;5.85;;;;;;;;;;5012299;28;20133;-87
2021/10/14 09:45:38;;;;;;;15.45;7.00;;;;;;;;;;5019593;28;20046;-87
2021/10/14 09:48:12;;;;;;;14.88;6.88;;;;;;;;;;5018596;28;20060;-88
2021/10/14 09:50:42;;;;;;;11.57;6.15;;;;;;;;;;5017072;28;20087;-89
2021/10/14 09:53:11;;;;;;;10.43;6.57;;;;;;;;;;5024297;28;20059;-85
2021/10/14 09:58:51;;;;;;;19.40;6.97;;;;;;;;;;5010750;28;20053;-86
2021/10/14 10:01:18;;;;;;;10.70;6.70;;;;;;;;;;5036175;28;20597;-86
2021/10/14 10:03:46;;;;;;;12.85;7.00;;;;;;;;;;5034445;28;20387;-85
2021/10/14 10:06:18;;;;;;;10.30;6.72;;;;;;;;;;5035155;28;20052;-85
2021/10/14 10:08:45;;;;;;;11.05;6.03;;;;;;;;;;5014415;28;20054;-87
2021/10/14 10:11:14;;;;;;;10.07;6.20;;;;;;;;;;5031321;28;20049;-85
2021/10/14 10:13:47;;;;;;;15.23;6.65;;;;;;;;;;5035471;28;20399;-85
2021/10/14 10:16:17;;;;;;;12.18;6.38;;;;;;;;;;5035605;28;20046;-85
2021/10/14 10:18:44;;;;;;;10.73;6.10;;;;;;;;;;5035715;28;20050;-86
2021/10/14 10:21:43;;;;;;;8.88;5.63;;;;;;;;;;5035608;28;20053;-85
2021/10/14 10:24:32;;;;;;;13.52;6.40;;;;;;;;;;5036518;28;20049;-85
2021/10/14 10:27:00;;;;;;;9.85;6.05;;;;;;;;;;5038723;28;20076;-84
2021/10/14 10:29:41;;;;;;;10.45;5.63;;;;;;;;;;5036011;28;20053;-85
2021/10/14 10:32:19;;;;;;;12.95;6.22;;;;;;;;;;5033930;28;20080;-86
2021/10/14 10:35:04;;;;;;;14.63;6.38;;;;;;;;;;5039124;28;20049;-85
2021/10/14 10:37:43;;;;;;;7.55;5.13;;;;;;;;;;5035797;28;20052;-85
2021/10/14 10:40:19;;;;;;;11.30;5.95;;;;;;;;;;5035236;28;20049;-84
2021/10/14 10:42:48;;;;;;;12.35;5.40;;;;;;;;;;5035644;28;20100;-85
2021/10/14 10:45:16;;;;;;;11.32;6.07;;;;;;;;;;5034801;28;20045;-85
2021/10/14 10:50:59;;;;;;;9.65;5.10;;;;;;;;;;5035112;28;20057;-85
2021/10/14 10:53:41;;;;;;;11.93;6.13;;;;;;;;;;5035273;28;20049;-86
2021/10/14 10:56:09;;;;;;;8.48;4.88;;;;;;;;;;5035154;28;20075;-87
2021/10/14 10:58:46;;;;;;;9.57;5.10;;;;;;;;;;5034920;28;20049;-85
2021/10/14 11:01:14;;;;;;;8.18;4.45;;;;;;;;;;5034134;28;20049;-85
2021/10/14 11:03:53;;;;;;;8.10;5.30;;;;;;;;;;5033215;28;20050;-85
2021/10/14 11:06:21;;;;;;;9.20;4.70;;;;;;;;;;5035352;28;20050;-86
2021/10/14 11:08:53;;;;;;;12.75;5.05;;;;;;;;;;5033449;28;20045;-86
2021/10/14 11:11:21;;;;;;;20.33;5.05;;;;;;;;;;5034346;28;20060;-86
2021/10/14 11:13:51;;;;;;;8.77;4.82;;;;;;;;;;5033771;28;20577;-85
2021/10/14 11:16:19;;;;;;;9.52;4.55;;;;;;;;;;5033906;28;20045;-86
2021/10/14 11:18:49;;;;;;;14.88;4.80;;;;;;;;;;5034164;28;20507;-86
2021/10/14 11:21:19;;;;;;;6.55;3.25;;;;;;;;;;5034212;28;20049;-87
2021/10/14 11:23:50;;;;;;;6.18;3.55;;;;;;;;;;5033761;28;20132;-87
2021/10/14 11:26:19;;;;;;;5.25;3.25;;;;;;;;;;5032729;28;20502;-87
2021/10/14 11:28:58;;;;;;;6.25;2.97;;;;;;;;;;5034001;28;20095;-87
2021/10/14 11:31:28;;;;;;;5.43;2.90;;;;;;;;;;5033862;28;20053;-86
2021/10/14 11:33:55;;;;;;;7.28;3.10;;;;;;;;;;5033774;28;20041;-87
2021/10/14 11:36:26;;;;;;;7.15;3.70;;;;;;;;;;5032451;28;20053;-86
2021/10/14 11:39:02;;;;;;;10.95;2.95;;;;;;;;;;5033949;28;20053;-87
2021/10/14 11:41:29;;;;;;;6.47;3.00;;;;;;;;;;5032785;28;20049;-85
2021/10/14 11:43:58;;;;;;;7.65;3.58;;;;;;;;;;5033535;28;20475;-86
2021/10/14 11:46:26;;;;;;;15.18;4.10;;;;;;;;;;5032152;28;20049;-87
2021/10/14 11:48:57;;;;;;;6.03;3.28;;;;;;;;;;5033862;28;20067;-86
2021/10/14 11:51:25;;;;;;;9.88;2.90;;;;;;;;;;5033763;28;20406;-85
2021/10/14 11:54:08;;;;;;;4.45;2.10;;;;;;;;;;5018422;28;20079;-87
2021/10/14 11:56:43;;;;;;;4.35;2.67;;;;;;;;;;5035828;28;20049;-86
2021/10/14 12:01:55;;;;;;;4.85;2.53;;;;;;;;;;5035289;28;20048;-87
2021/10/14 12:04:25;;;;;;;9.52;3.00;;;;;;;;;;5032642;28;20057;-86
2021/10/14 12:07:08;;;;;;;9.63;2.78;;;;;;;;;;5036595;28;20049;-87
2021/10/14 12:09:41;;;;;;;9.48;3.50;;;;;;;;;;5034986;28;20042;-86
2021/10/14 12:12:08;;;;;;;9.77;2.40;;;;;;;;;;5036497;28;20050;-85
2021/10/14 12:14:38;;;;;;;12.73;3.42;;;;;;;;;;5033652;28;20112;-84
2021/10/14 12:17:11;;;;;;;4.72;3.30;;;;;;;;;;5037445;28;20184;-86
2021/10/14 12:19:59;;;;;;;;;;;;;;;;;;;;;
2021/10/14 12:22:26;;;;;;;4.28;2.10;;;;;;;;;;5033928;28;20065;-86
2021/10/14 12:24:58;;;;;;;5.43;2.92;;;;;;;;;;5035864;28;20048;-86
2021/10/14 12:27:25;;;;;;;3.38;1.85;;;;;;;;;;5035264;28;20132;-86
2021/10/14 12:29:53;;;;;;;7.38;2.63;;;;;;;;;;5034242;28;20568;-86
2021/10/14 12:32:22;;;;;;;4.45;2.33;;;;;;;;;;5032694;28;20421;-86
2021/10/14 12:34:57;;;;;;;7.22;2.30;;;;;;;;;;5033600;28;20095;-86
2021/10/14 12:37:32;;;;;;;6.38;2.72;;;;;;;;;;5035845;28;20740;-86
2021/10/14 12:40:20;;;;;;;5.53;2.80;;;;;;;;;;5035563;28;20112;-85
2021/10/14 12:43:01;;;;;;;5.78;2.17;;;;;;;;;;5033565;28;20055;-86
2021/10/14 12:45:37;;;;;;;7.22;2.70;;;;;;;;;;5038160;28;20453;-86
2021/10/14 12:48:33;;;;;;;4.55;2.20;;;;;;;;;;5039781;28;20096;-86
2021/10/14 12:51:09;;;;;;;;;;;;;;;;;;5040461;28;20050;-86
2021/10/14 12:53:55;;;;;;;9.25;2.80;;;;;;;;;;5039437;28;19920;-88
2021/10/14 12:56:37;;;;;;;7.28;2.38;;;;;;;;;;5041964;28;20053;-86
2021/10/14 12:59:11;;;;;;;4.65;2.10;;;;;;;;;;5038366;28;20045;-87
2021/10/14 13:01:45;;;;;;;5.38;1.65;;;;;;;;;;5020392;28;20483;-88
2021/10/14 13:04:12;;;;;;;3.53;1.63;;;;;;;;;;5019445;28;20065;-86
2021/10/14 13:06:39;;;;;;;4.13;1.80;;;;;;;;;;5036672;28;20061;-87
2021/10/14 13:09:07;;;;;;;3.58;1.80;;;;;;;;;;5037180;28;20414;-86
2021/10/14 13:11:37;;;;;;;7.28;2.03;;;;;;;;;;5037763;28;20055;-86
2021/10/14 13:14:05;;;;;;;4.25;2.00;;;;;;;;;;5040250;28;20116;-87
2021/10/14 13:16:45;;;;;;;3.08;1.33;;;;;;;;;;5037957;28;20049;-86
2021/10/14 13:19:12;;;;;;;3.28;1.55;;;;;;;;;;5037190;28;20045;-87
2021/10/14 13:21:39;;;;;;;3.05;1.73;;;;;;;;;;5019254;28;20053;-85
2021/10/14 13:24:07;;;;;;;2.92;1.80;;;;;;;;;;5036983;28;20046;-85
2021/10/14 13:26:36;;;;;;;3.50;1.58;;;;;;;;;;5037488;28;20049;-87
2021/10/14 13:29:03;;;;;;;4.70;1.40;;;;;;;;;;5037964;28;20541;-85
2021/10/14 13:31:30;;;;;;;3.28;1.70;;;;;;;;;;5036189;28;20140;-86
2021/10/14 13:33:57;;;;;;;2.33;1.35;;;;;;;;;;5020034;28;20053;-85
2021/10/14 13:36:25;;;;;;;6.43;1.60;;;;;;;;;;5036280;28;20490;-87
2021/10/14 13:38:55;;;;;;;4.32;1.33;;;;;;;;;;5019534;28;20072;-87
2021/10/14 13:41:33;;;;;;;3.67;1.75;;;;;;;;;;5037082;28;20518;-86
2021/10/14 13:44:03;;;;;;;3.25;1.65;;;;;;;;;;5036716;28;20049;-86
2021/10/14 13:46:30;;;;;;;2.40;1.25;;;;;;;;;;5036807;28;20049;-86
2021/10/14 13:48:57;;;;;;;3.08;1.73;;;;;;;;;;5035197;28;20513;-86
2021/10/14 13:51:24;;;;;;;3.05;1.67;;;;;;;;;;5036859;28;20045;-87
2021/10/14 13:53:52;;;;;;;19.67;2.83;;;;;;;;;;5033639;28;20517;-86
2021/10/14 13:56:19;;;;;;;4.53;2.05;;;;;;;;;;5031354;28;20544;-86
2021/10/14 13:58:46;;;;;;;4.82;2.30;;;;;;;;;;5025015;28;20046;-89
2021/10/14 14:01:17;;;;;;;3.83;2.25;;;;;;;;;;5017989;28;20095;-89
2021/10/14 14:03:47;;;;;;;4.47;2.17;;;;;;;;;;5035130;28;20050;-88
2021/10/14 14:06:14;;;;;;;6.32;2.28;;;;;;;;;;5036156;28;20060;-87
2021/10/14 14:08:41;;;;;;;4.03;1.95;;;;;;;;;;5033155;28;20133;-89
2021/10/14 14:11:11;;;;;;;6.70;1.52;;;;;;;;;;5030903;28;20046;-89
2021/10/14 14:13:38;;;;;;;3.50;2.15;;;;;;;;;;5033397;28;20140;-88
2021/10/14 14:16:05;;;;;;;3.75;1.85;;;;;;;;;;5033879;28;20041;-88
2021/10/14 14:18:34;;;;;;;4.22;1.85;;;;;;;;;;5036155;28;20054;-88
2021/10/14 14:21:01;;;;;;;3.40;1.63;;;;;;;;;;5033994;28;20046;-87
2021/10/14 14:23:28;;;;;;;3.17;1.52;;;;;;;;;;5035425;28;20128;-88
2021/10/14 14:25:58;;;;;;;3.10;1.42;;;;;;;;;;5034208;28;20095;-88
2021/10/14 14:28:25;;;;;;;2.90;1.30;;;;;;;;;;5033534;28;20141;-89
2021/10/14 14:30:52;;;;;;;4.22;1.30;;;;;;;;;;5033385;28;20099;-89
2021/10/14 14:33:19;;;;;;;3.80;1.60;;;;;;;;;;5034265;28;20399;-89
2021/10/14 14:35:48;;;;;;;3.17;1.50;;;;;;;;;;5034815;28;20057;-88
2021/10/14 14:38:27;;;;;;;5.03;1.50;;;;;;;;;;5035593;28;20488;-90
2021/10/14 14:40:54;;;;;;;4.57;1.70;;;;;;;;;;5013643;28;20056;-87
2021/10/14 14:43:21;;;;;;;3.50;1.80;;;;;;;;;;5031000;28;20084;-88
2021/10/14 14:45:49;;;;;;;3.63;1.63;;;;;;;;;;5034111;28;20057;-87
2021/10/14 14:48:16;;;;;;;3.08;1.50;;;;;;;;;;5034656;28;20136;-88
2021/10/14 14:50:43;;;;;;;3.53;1.20;;;;;;;;;;5035133;28;20049;-88
2021/10/14 14:53:13;;;;;;;2.85;1.60;;;;;;;;;;5017196;28;20045;-88
2021/10/14 14:55:41;;;;;;;3.83;1.83;;;;;;;;;;5033174;28;20057;-89
2021/10/14 14:58:09;;;;;;;6.60;2.05;;;;;;;;;;5027206;28;20368;-88
2021/10/14 15:00:39;;;;;;;4.78;2.10;;;;;;;;;;5033153;28;20505;-89
2021/10/14 15:03:06;;;;;;;3.92;1.80;;;;;;;;;;5035048;28;20136;-89